Time;durP1;ratioP1;P1;durP2;ratioP2;P2;SDS_P1;SDS_P2;PMS_P1;PMS_P2;Temp;Humidity;BMP_temperature;BMP_pressure;BME280_temperature;BME280_humidity;BME280_pressure;Samples;Min_cycle;Max_cycle;Signal;HPM_P1;HPM_P2
2022/05/17 00:01:01;;;;;;;12.45;4.43;;;15.90;99.90;;;;;;5052277;28;20047;-66
2022/05/17 00:03:27;;;;;;;11.68;4.45;;;15.90;99.90;;;;;;5052974;28;20036;-65
2022/05/17 00:05:53;;;;;;;11.50;5.45;;;15.80;99.90;;;;;;5052275;28;20044;-66
2022/05/17 00:08:19;;;;;;;11.57;5.43;;;15.80;99.90;;;;;;5070378;28;20029;-65
2022/05/17 00:10:46;;;;;;;12.80;6.50;;;15.80;99.90;;;;;;5052616;28;20052;-66
2022/05/17 00:13:13;;;;;;;8.73;4.82;;;15.70;99.90;;;;;;5052392;28;20495;-65
2022/05/17 00:15:42;;;;;;;10.13;5.65;;;15.70;99.90;;;;;;5074478;28;20076;-66
2022/05/17 00:18:11;;;;;;;11.73;5.32;;;15.60;99.90;;;;;;5055677;28;20044;-66
2022/05/17 00:20:38;;;;;;;10.43;5.93;;;15.50;99.90;;;;;;5074589;28;20041;-66
2022/05/17 00:23:04;;;;;;;12.85;6.25;;;15.50;99.90;;;;;;5074180;28;20565;-66
2022/05/17 00:25:30;;;;;;;16.20;6.50;;;15.40;99.90;;;;;;5074479;28;20063;-66
2022/05/17 00:27:55;;;;;;;12.80;6.07;;;15.40;99.90;;;;;;5073960;28;20056;-65
2022/05/17 00:30:21;;;;;;;13.43;6.63;;;15.30;99.90;;;;;;5056057;28;20047;-66
2022/05/17 00:32:46;;;;;;;13.40;5.80;;;15.20;99.90;;;;;;5056442;28;20090;-67
2022/05/17 00:35:12;;;;;;;12.75;5.95;;;15.20;99.90;;;;;;5073921;28;20072;-65
2022/05/17 00:37:38;;;;;;;10.02;5.57;;;15.20;99.90;;;;;;5074179;28;20066;-65
2022/05/17 00:40:06;;;;;;;13.02;5.88;;;15.20;99.90;;;;;;5039225;28;20466;-65
2022/05/17 00:42:32;;;;;;;16.10;5.80;;;15.20;99.90;;;;;;5073819;28;20124;-66
2022/05/17 00:44:58;;;;;;;14.30;5.90;;;15.10;99.90;;;;;;5055998;28;20036;-66
2022/05/17 00:47:24;;;;;;;15.27;5.57;;;15.00;99.90;;;;;;5055921;28;20040;-66
2022/05/17 00:50:02;;;;;;;13.75;5.38;;;15.00;99.90;;;;;;5055793;28;20051;-65
2022/05/17 00:52:40;;;;;;;9.73;5.43;;;15.00;99.90;;;;;;5056269;28;20434;-67
2022/05/17 00:55:19;;;;;;;14.32;5.82;;;14.90;99.90;;;;;;5055406;28;20040;-66
2022/05/17 00:57:54;;;;;;;14.60;5.72;;;14.90;99.90;;;;;;5055660;28;20044;-67
2022/05/17 01:00:21;;;;;;;10.75;5.65;;;14.80;99.90;;;;;;5055443;28;20036;-65
2022/05/17 01:02:54;;;;;;;13.70;5.28;;;14.80;99.90;;;;;;5073614;28;20028;-66
2022/05/17 01:05:23;;;;;;;11.07;5.25;;;14.70;99.90;;;;;;5055387;28;20043;-66
2022/05/17 01:07:53;;;;;;;13.65;5.65;;;14.70;99.90;;;;;;5055769;28;20048;-66
2022/05/17 01:10:19;;;;;;;12.02;4.75;;;14.60;99.90;;;;;;5054966;28;20041;-66
2022/05/17 01:14:57;;;;;;;12.45;5.53;;;14.60;99.90;;;;;;5055625;28;20063;-66
2022/05/17 01:15:31;;;;;;;12.32;5.30;;;14.60;99.90;;;;;;5073120;28;20091;-66
2022/05/17 01:17:58;;;;;;;11.88;5.28;;;14.60;99.90;;;;;;5054577;28;20072;-66
2022/05/17 01:20:23;;;;;;;13.00;5.53;;;14.60;99.90;;;;;;5053983;28;20036;-66
2022/05/17 01:22:49;;;;;;;14.30;5.63;;;14.60;99.90;;;;;;5054365;28;20123;-66
2022/05/17 01:25:15;;;;;;;11.25;5.00;;;14.60;99.90;;;;;;5053689;28;20071;-65
2022/05/17 01:27:45;;;;;;;9.63;4.85;;;14.50;99.90;;;;;;5053966;28;20040;-66
2022/05/17 01:30:17;;;;;;;12.20;5.30;;;14.50;99.90;;;;;;5053877;28;20047;-66
2022/05/17 01:32:43;;;;;;;13.43;5.10;;;14.40;99.90;;;;;;5072212;28;20060;-66
2022/05/17 01:35:09;;;;;;;12.95;5.35;;;14.40;99.90;;;;;;5054094;28;20090;-66
2022/05/17 01:37:34;;;;;;;16.20;5.28;;;14.40;99.90;;;;;;5071833;28;20124;-66
2022/05/17 01:40:00;;;;;;;13.02;5.00;;;14.40;99.90;;;;;;5071833;28;20036;-66
2022/05/17 01:42:26;;;;;;;11.50;4.97;;;14.30;99.90;;;;;;5053456;28;20036;-66
2022/05/17 01:44:52;;;;;;;11.15;4.90;;;14.30;99.90;;;;;;5053690;28;20040;-65
2022/05/17 01:47:17;;;;;;;9.40;4.70;;;14.30;99.90;;;;;;5053476;28;20061;-65
2022/05/17 01:49:43;;;;;;;13.07;5.15;;;14.30;99.90;;;;;;5071651;28;20040;-66
2022/05/17 01:52:09;;;;;;;13.15;5.03;;;14.30;99.90;;;;;;5053540;28;20032;-65
2022/05/17 01:54:35;;;;;;;15.07;5.82;;;14.30;99.90;;;;;;5053799;28;20052;-66
2022/05/17 01:57:01;;;;;;;15.43;4.82;;;14.30;99.90;;;;;;5053251;28;20048;-66
2022/05/17 01:59:27;;;;;;;10.93;5.10;;;14.30;99.90;;;;;;5071152;28;20048;-66
2022/05/17 02:01:53;;;;;;;12.88;5.90;;;14.20;99.90;;;;;;5053515;28;20036;-66
2022/05/17 02:04:18;;;;;;;12.48;5.60;;;14.20;99.90;;;;;;5053373;28;20032;-66
2022/05/17 02:06:44;;;;;;;13.55;5.35;;;14.20;99.90;;;;;;5071358;28;20032;-66
2022/05/17 02:09:10;;;;;;;12.52;5.28;;;14.20;99.90;;;;;;5071386;28;20044;-66
2022/05/17 02:11:35;;;;;;;10.68;5.50;;;14.20;99.90;;;;;;5053258;28;20062;-67
2022/05/17 02:14:01;;;;;;;10.02;4.60;;;14.20;99.90;;;;;;5053459;28;20494;-66
2022/05/17 02:16:28;;;;;;;12.60;4.97;;;14.10;99.90;;;;;;5052812;28;20058;-66
2022/05/17 02:18:53;;;;;;;12.77;5.88;;;14.10;99.90;;;;;;5034223;28;1080871;-66
2022/05/17 02:21:19;;;;;;;11.02;4.90;;;14.10;99.90;;;;;;5072186;28;20466;-66
2022/05/17 02:23:45;;;;;;;11.48;4.70;;;14.10;99.90;;;;;;5071978;28;20111;-66
2022/05/17 02:26:10;;;;;;;11.77;5.43;;;14.00;99.90;;;;;;5072099;28;20040;-65
2022/05/17 02:28:36;;;;;;;15.77;5.57;;;14.00;99.90;;;;;;5071784;28;20071;-66
2022/05/17 02:31:02;;;;;;;8.52;4.57;;;14.00;99.90;;;;;;5054004;28;20565;-65
2022/05/17 02:33:28;;;;;;;12.52;5.05;;;14.00;99.90;;;;;;5053716;28;20072;-65
2022/05/17 02:35:53;;;;;;;10.85;5.05;;;13.90;99.90;;;;;;5053223;28;20040;-66
2022/05/17 02:38:19;;;;;;;14.35;5.45;;;13.90;99.90;;;;;;5053585;28;20044;-66
2022/05/17 02:40:44;;;;;;;12.45;5.13;;;13.90;99.90;;;;;;5071490;28;20037;-66
2022/05/17 02:43:13;;;;;;;13.88;5.80;;;13.80;99.90;;;;;;5053673;28;20114;-65
2022/05/17 02:45:39;;;;;;;16.52;5.30;;;13.80;99.90;;;;;;5071485;28;20036;-66
2022/05/17 02:48:05;;;;;;;11.55;5.22;;;13.80;99.90;;;;;;5053744;28;20158;-66
2022/05/17 02:50:32;;;;;;;12.38;5.68;;;13.70;99.90;;;;;;5053514;28;20604;-65
2022/05/17 02:52:58;;;;;;;14.05;5.82;;;13.70;99.90;;;;;;5036504;28;20400;-67
2022/05/17 02:55:24;;;;;;;9.70;4.63;;;13.70;99.90;;;;;;5053878;28;20047;-65
2022/05/17 02:57:49;;;;;;;12.45;4.97;;;13.70;99.90;;;;;;5053163;28;20067;-67
2022/05/17 03:00:16;;;;;;;8.98;4.82;;;13.60;99.90;;;;;;5071508;28;20475;-65
2022/05/17 03:02:42;;;;;;;16.08;5.90;;;13.60;99.90;;;;;;5052698;28;20044;-66
2022/05/17 03:05:09;;;;;;;10.30;5.22;;;13.60;99.90;;;;;;5053409;28;20040;-65
2022/05/17 03:07:35;;;;;;;9.15;5.28;;;13.50;99.90;;;;;;5052915;28;20067;-66
2022/05/17 03:10:01;;;;;;;10.88;4.80;;;13.50;99.90;;;;;;5053128;28;20058;-66
2022/05/17 03:12:26;;;;;;;14.48;5.95;;;13.50;99.90;;;;;;5070862;28;20036;-65
2022/05/17 03:14:52;;;;;;;11.13;5.97;;;13.40;99.90;;;;;;5070901;28;20388;-65
2022/05/17 03:17:18;;;;;;;13.18;5.13;;;13.40;99.90;;;;;;5070792;28;20059;-66
2022/05/17 03:19:44;;;;;;;11.13;5.47;;;13.40;99.90;;;;;;5052784;28;20040;-66
2022/05/17 03:22:10;;;;;;;12.85;5.45;;;13.40;99.90;;;;;;5053177;28;20054;-65
2022/05/17 03:24:36;;;;;;;10.52;5.25;;;13.40;99.90;;;;;;5052689;28;20041;-66
2022/05/17 03:27:03;;;;;;;12.00;6.00;;;13.40;99.90;;;;;;5052670;28;20119;-65
2022/05/17 03:29:28;;;;;;;9.85;5.22;;;13.40;99.90;;;;;;5053000;28;20044;-65
2022/05/17 03:31:54;;;;;;;9.32;5.30;;;13.40;99.90;;;;;;5070780;28;20047;-66
2022/05/17 03:34:20;;;;;;;10.60;5.35;;;13.30;99.90;;;;;;5070972;28;20036;-65
2022/05/17 03:36:46;;;;;;;14.00;5.63;;;13.30;99.90;;;;;;5070396;28;20544;-66
2022/05/17 03:39:11;;;;;;;12.55;5.90;;;13.30;99.90;;;;;;5070975;28;20033;-66
2022/05/17 03:41:37;;;;;;;11.75;5.45;;;13.30;99.90;;;;;;5052451;28;20063;-66
2022/05/17 03:44:04;;;;;;;13.45;5.65;;;13.30;99.90;;;;;;5070756;28;20402;-67
2022/05/17 03:46:30;;;;;;;12.07;5.70;;;13.30;99.90;;;;;;5070817;28;20028;-65
2022/05/17 03:48:55;;;;;;;12.68;5.68;;;13.30;99.90;;;;;;5070372;28;20093;-66
2022/05/17 03:51:21;;;;;;;10.18;5.38;;;13.30;99.90;;;;;;5052902;28;20398;-65
2022/05/17 03:53:50;;;;;;;11.48;5.57;;;13.20;99.90;;;;;;5052374;28;20056;-65
2022/05/17 03:56:16;;;;;;;10.38;5.40;;;13.20;99.90;;;;;;5052450;28;20044;-64
2022/05/17 03:58:43;;;;;;;10.45;5.90;;;13.30;99.90;;;;;;5052869;28;20388;-66
2022/05/17 04:01:09;;;;;;;13.75;5.45;;;13.30;99.90;;;;;;5070667;28;20411;-65
2022/05/17 04:03:35;;;;;;;10.88;5.35;;;13.30;99.90;;;;;;5052500;28;20446;-66
2022/05/17 04:06:01;;;;;;;12.20;5.75;;;13.30;99.90;;;;;;5052209;28;20044;-66
2022/05/17 04:08:27;;;;;;;12.85;6.43;;;13.30;99.90;;;;;;5052544;28;20402;-66
2022/05/17 04:10:52;;;;;;;11.15;5.82;;;13.40;99.90;;;;;;5052105;28;20048;-65
2022/05/17 04:13:18;;;;;;;15.32;5.32;;;13.40;99.90;;;;;;5070595;28;20036;-65
2022/05/17 04:15:44;;;;;;;9.05;5.20;;;13.40;99.90;;;;;;5052276;28;20483;-66
2022/05/17 04:18:10;;;;;;;9.75;5.00;;;13.50;99.90;;;;;;5070380;28;20098;-66
2022/05/17 04:20:36;;;;;;;9.75;5.10;;;13.60;99.90;;;;;;5052382;28;20083;-66
2022/05/17 04:23:02;;;;;;;10.63;5.50;;;13.50;99.90;;;;;;5070058;28;20068;-66
2022/05/17 04:25:28;;;;;;;11.95;5.88;;;13.60;99.90;;;;;;5052533;28;20044;-66
2022/05/17 04:27:54;;;;;;;15.10;5.90;;;13.60;99.90;;;;;;5070028;28;20048;-65
2022/05/17 04:30:20;;;;;;;13.85;5.97;;;13.70;99.90;;;;;;5052301;28;20083;-65
2022/05/17 04:32:47;;;;;;;17.02;6.75;;;13.70;99.90;;;;;;5052669;28;20063;-66
2022/05/17 04:35:14;;;;;;;12.48;6.03;;;13.70;99.90;;;;;;5070184;28;20039;-65
2022/05/17 04:37:40;;;;;;;10.43;5.72;;;13.70;99.90;;;;;;5070074;28;20044;-65
2022/05/17 04:40:09;;;;;;;12.57;5.90;;;13.80;99.90;;;;;;5069689;28;20089;-66
2022/05/17 04:42:37;;;;;;;11.40;5.53;;;13.80;99.90;;;;;;5052095;28;20094;-65
2022/05/17 04:45:04;;;;;;;15.45;5.88;;;13.90;99.90;;;;;;5051753;28;20040;-66
2022/05/17 04:47:31;;;;;;;12.60;5.93;;;14.00;99.90;;;;;;5069933;28;20120;-66
2022/05/17 04:49:56;;;;;;;12.98;5.85;;;14.10;99.90;;;;;;5035300;28;20044;-66
2022/05/17 04:52:26;;;;;;;15.70;5.43;;;14.20;99.90;;;;;;5069763;28;20537;-66
2022/05/17 04:54:52;;;;;;;15.45;5.88;;;14.30;99.90;;;;;;5051881;28;20056;-65
2022/05/17 04:57:18;;;;;;;16.23;6.55;;;14.40;99.90;;;;;;5069710;28;20044;-65
2022/05/17 04:59:44;;;;;;;12.32;5.97;;;14.50;99.90;;;;;;5052952;28;20043;-66
2022/05/17 05:02:10;;;;;;;11.05;5.95;;;14.70;99.90;;;;;;5073529;28;20039;-65
2022/05/17 05:04:38;;;;;;;11.35;6.00;;;14.80;99.90;;;;;;5073613;28;20040;-65
2022/05/17 05:07:07;;;;;;;13.45;5.68;;;14.80;99.90;;;;;;5055220;28;20082;-65
2022/05/17 05:09:33;;;;;;;11.52;5.85;;;14.90;99.90;;;;;;5073675;28;20048;-66
2022/05/17 05:11:59;;;;;;;12.68;6.00;;;14.90;99.90;;;;;;5055527;28;20429;-66
2022/05/17 05:14:26;;;;;;;12.60;5.85;;;15.00;99.90;;;;;;5055179;28;20044;-65
2022/05/17 05:16:52;;;;;;;14.55;6.10;;;15.10;99.90;;;;;;5073193;28;20129;-65
2022/05/17 05:19:18;;;;;;;10.93;5.50;;;15.20;99.90;;;;;;5073235;28;20127;-67
2022/05/17 05:21:44;;;;;;;12.10;5.88;;;15.30;99.90;;;;;;5073061;28;20174;-66
2022/05/17 05:24:11;;;;;;;12.98;5.68;;;15.30;99.90;;;;;;5054938;28;20044;-66
2022/05/17 05:26:38;;;;;;;12.57;6.20;;;15.40;99.90;;;;;;5055223;28;20119;-66
2022/05/17 05:29:05;;;;;;;15.25;6.45;;;15.40;99.90;;;;;;5055131;28;20080;-66
2022/05/17 05:31:30;;;;;;;9.95;4.85;;;15.40;99.90;;;;;;5054925;28;20084;-65
2022/05/17 05:33:56;;;;;;;11.93;5.15;;;15.40;99.90;;;;;;5055209;28;20138;-66
2022/05/17 05:36:22;;;;;;;13.52;5.75;;;15.40;99.90;;;;;;5054885;28;20115;-66
2022/05/17 05:38:48;;;;;;;12.10;5.50;;;15.40;99.90;;;;;;5073079;28;20131;-67
2022/05/17 05:41:15;;;;;;;14.00;5.95;;;15.40;99.90;;;;;;5054613;28;20078;-65
2022/05/17 05:43:41;;;;;;;12.13;5.22;;;15.40;99.90;;;;;;5054900;28;20041;-66
2022/05/17 05:46:07;;;;;;;13.45;5.32;;;15.40;99.90;;;;;;5072871;28;20040;-66
2022/05/17 05:48:33;;;;;;;11.07;5.63;;;15.40;99.90;;;;;;5072507;28;20082;-66
2022/05/17 05:50:58;;;;;;;13.48;5.30;;;15.50;99.90;;;;;;5072665;28;20434;-65
2022/05/17 05:53:24;;;;;;;12.30;5.55;;;15.60;99.90;;;;;;5054473;28;20051;-65
2022/05/17 05:55:54;;;;;;;10.73;5.43;;;15.60;99.90;;;;;;5072894;28;20066;-65
2022/05/17 05:58:19;;;;;;;11.52;5.35;;;15.70;99.90;;;;;;5054475;28;20041;-66
2022/05/17 06:00:45;;;;;;;10.57;4.97;;;15.80;99.90;;;;;;5072525;28;20055;-66
2022/05/17 06:03:11;;;;;;;10.25;4.85;;;15.90;99.90;;;;;;5054755;28;20036;-66
2022/05/17 06:05:37;;;;;;;10.43;5.10;;;16.00;99.90;;;;;;5072243;28;20044;-65
2022/05/17 06:08:03;;;;;;;15.07;5.00;;;16.10;99.90;;;;;;5054514;28;20048;-66
2022/05/17 06:10:29;;;;;;;12.73;5.28;;;16.10;99.90;;;;;;5071632;28;20083;-66
2022/05/17 06:12:55;;;;;;;10.82;4.80;;;16.10;99.90;;;;;;5053350;28;20036;-66
2022/05/17 06:15:21;;;;;;;13.23;4.57;;;16.20;99.90;;;;;;5054148;28;20033;-65
2022/05/17 06:17:47;;;;;;;11.57;5.35;;;16.20;99.90;;;;;;5053549;28;20450;-65
2022/05/17 06:20:14;;;;;;;13.23;4.93;;;16.20;99.90;;;;;;5054085;28;20036;-66
2022/05/17 06:22:40;;;;;;;10.07;4.72;;;16.30;99.90;;;;;;5054171;28;20372;-66
2022/05/17 06:25:07;;;;;;;15.48;5.25;;;16.30;99.90;;;;;;5072057;28;20047;-66
2022/05/17 06:27:32;;;;;;;10.73;5.05;;;16.30;99.90;;;;;;5054033;28;20550;-65
2022/05/17 06:29:58;;;;;;;13.40;4.60;;;16.30;99.90;;;;;;5054257;28;20094;-66
2022/05/17 06:32:24;;;;;;;11.80;4.93;;;16.30;99.90;;;;;;5071703;28;20037;-66
2022/05/17 06:34:49;;;;;;;9.70;4.63;;;16.40;99.90;;;;;;5054049;28;20040;-65
2022/05/17 06:37:15;;;;;;;13.35;4.70;;;16.40;99.90;;;;;;5071850;28;20425;-66
2022/05/17 06:39:42;;;;;;;11.15;5.00;;;16.50;99.90;;;;;;5071576;28;20032;-66
2022/05/17 06:42:08;;;;;;;10.90;5.13;;;16.60;99.90;;;;;;5071695;28;20477;-67
2022/05/17 06:44:36;;;;;;;15.25;5.15;;;16.70;99.90;;;;;;5036834;28;21476;-67
2022/05/17 06:47:02;;;;;;;14.73;4.93;;;16.90;99.90;;;;;;5071573;28;20039;-65
2022/05/17 06:49:27;;;;;;;10.15;4.38;;;17.10;99.90;;;;;;5071295;28;20044;-66
2022/05/17 06:51:53;;;;;;;9.80;4.20;;;17.30;99.90;;;;;;5053912;28;20536;-65
2022/05/17 06:54:19;;;;;;;8.18;4.00;;;17.50;99.90;;;;;;5071500;28;20036;-66
2022/05/17 06:56:45;;;;;;;10.55;3.90;;;17.40;99.90;;;;;;5071095;28;20090;-66
2022/05/17 06:59:11;;;;;;;10.95;4.00;;;17.50;99.90;;;;;;5053646;28;20115;-65
2022/05/17 07:01:36;;;;;;;10.30;3.80;;;17.50;99.90;;;;;;5070994;28;20033;-66
2022/05/17 07:04:02;;;;;;;13.20;3.53;;;17.60;99.90;;;;;;5053323;28;20044;-67
2022/05/17 07:06:28;;;;;;;12.90;4.18;;;17.70;99.90;;;;;;5053115;28;20044;-65
2022/05/17 07:08:54;;;;;;;15.57;4.70;;;17.80;99.90;;;;;;5053253;28;20040;-66
2022/05/17 07:14:04;;;;;;;9.65;3.75;;;18.00;99.90;;;;;;5053264;28;20404;-66
2022/05/17 07:16:30;;;;;;;9.55;3.28;;;18.00;99.90;;;;;;5053207;28;20040;-66
2022/05/17 07:18:56;;;;;;;12.27;3.45;;;18.10;99.90;;;;;;5052460;28;20574;-65
2022/05/17 07:21:22;;;;;;;11.50;3.63;;;18.20;99.90;;;;;;5071319;28;20036;-66
2022/05/17 07:23:48;;;;;;;18.60;3.97;;;18.20;99.90;;;;;;5070624;28;20036;-66
2022/05/17 07:26:14;;;;;;;9.02;3.42;;;18.40;99.90;;;;;;5053017;28;20132;-66
2022/05/17 07:28:46;;;;;;;13.23;3.67;;;18.60;99.90;;;;;;5052698;28;20102;-66
2022/05/17 07:31:12;;;;;;;9.00;3.00;;;18.70;99.90;;;;;;5071231;28;20051;-66
2022/05/17 07:33:38;;;;;;;12.07;3.80;;;18.90;99.90;;;;;;5035556;28;20056;-66
2022/05/17 07:36:05;;;;;;;9.45;3.58;;;19.00;99.90;;;;;;5052760;28;20045;-66
2022/05/17 07:38:31;;;;;;;10.90;3.50;;;19.10;99.90;;;;;;5036061;28;20087;-65
2022/05/17 07:40:57;;;;;;;12.18;3.67;;;19.10;99.90;;;;;;5052559;28;20098;-66
2022/05/17 07:43:23;;;;;;;10.43;3.80;;;19.30;99.90;;;;;;5052804;28;20387;-66
2022/05/17 07:45:50;;;;;;;12.07;3.78;;;19.30;99.90;;;;;;5052480;28;20425;-67
2022/05/17 07:48:20;;;;;;;12.02;3.95;;;19.20;99.90;;;;;;5052984;28;20081;-66
2022/05/17 07:50:46;;;;;;;10.35;3.53;;;19.40;99.90;;;;;;5070435;28;20410;-66
2022/05/17 07:53:14;;;;;;;10.05;3.50;;;19.50;99.90;;;;;;5052619;28;20045;-67
2022/05/17 07:55:42;;;;;;;10.68;3.63;;;19.50;99.90;;;;;;5052596;28;20048;-67
2022/05/17 07:58:08;;;;;;;9.85;3.42;;;19.60;99.90;;;;;;5052457;28;20032;-66
2022/05/17 08:00:35;;;;;;;11.75;3.47;;;19.80;99.90;;;;;;5052570;28;20040;-65
2022/05/17 08:03:01;;;;;;;11.05;3.05;;;19.80;99.90;;;;;;5070535;28;20036;-66
2022/05/17 08:05:28;;;;;;;13.57;3.17;;;19.70;99.90;;;;;;5052964;28;20055;-66
2022/05/17 08:07:54;;;;;;;10.15;2.88;;;19.70;99.90;;;;;;5052608;28;20048;-66
2022/05/17 08:10:21;;;;;;;9.35;2.83;;;19.80;99.90;;;;;;5070554;28;20033;-66
2022/05/17 08:12:47;;;;;;;9.98;3.15;;;19.70;99.90;;;;;;5052245;28;20522;-66
2022/05/17 08:15:14;;;;;;;9.27;2.95;;;19.80;99.90;;;;;;5070412;28;20044;-66
2022/05/17 08:17:39;;;;;;;11.35;3.25;;;20.00;99.90;;;;;;5052218;28;20053;-66
2022/05/17 08:20:09;;;;;;;10.98;3.17;;;20.10;99.90;;;;;;5070352;28;21131;-66
2022/05/17 08:22:40;;;;;;;9.10;2.35;;;20.20;99.90;;;;;;5052303;28;20052;-66
2022/05/17 08:27:54;;;;;;;8.38;2.30;;;20.50;99.90;;;;;;5052268;28;20499;-66
2022/05/17 08:30:21;;;;;;;6.40;1.88;;;20.80;99.90;;;;;;5052371;28;20068;-66
2022/05/17 08:36:02;;;;;;;10.40;2.10;;;21.10;99.90;;;;;;5054757;28;20394;-66
2022/05/17 08:38:35;;;;;;;8.15;2.00;;;21.10;99.90;;;;;;5056173;28;20044;-66
2022/05/17 08:41:19;;;;;;;7.55;2.05;;;21.00;99.90;;;;;;5055839;28;20044;-66
2022/05/17 08:44:00;;;;;;;11.55;2.38;;;21.20;99.90;;;;;;5055861;28;20048;-67
2022/05/17 08:46:41;;;;;;;10.23;1.90;;;21.30;99.90;;;;;;5074323;28;20032;-66
2022/05/17 08:49:24;;;;;;;7.50;1.92;;;21.60;99.90;;;;;;5055688;28;20102;-66
2022/05/17 08:51:57;;;;;;;8.10;2.15;;;21.70;99.90;;;;;;5073811;28;20048;-65
2022/05/17 08:54:30;;;;;;;12.00;2.38;;;21.90;99.90;;;;;;5055855;28;20037;-66
2022/05/17 08:57:06;;;;;;;9.90;2.30;;;22.20;99.90;;;;;;5055627;28;20048;-67
2022/05/17 08:59:36;;;;;;;8.20;2.22;;;22.40;99.90;;;;;;5073809;28;20082;-67
2022/05/17 09:02:16;;;;;;;10.10;2.00;;;22.40;99.90;;;;;;5055549;28;20044;-67
2022/05/17 09:05:04;;;;;;;9.63;2.15;;;22.40;99.90;;;;;;5055764;28;20450;-67
2022/05/17 09:07:43;;;;;;;10.75;2.20;;;22.60;99.90;;;;;;5055773;28;20083;-67
2022/05/17 09:10:34;;;;;;;9.40;2.60;;;22.80;99.90;;;;;;5038087;28;20055;-67
2022/05/17 09:13:20;;;;;;;9.73;2.20;;;22.80;99.90;;;;;;5055396;28;20048;-66
2022/05/17 09:15:46;;;;;;;7.32;2.13;;;22.80;99.90;;;;;;5055505;28;20036;-67
2022/05/17 09:18:16;;;;;;;7.15;1.95;;;22.80;99.90;;;;;;5072890;28;20045;-66
2022/05/17 09:20:42;;;;;;;6.28;2.22;;;22.90;99.90;;;;;;5055276;28;20052;-67
2022/05/17 09:23:08;;;;;;;6.72;2.10;;;22.60;99.90;;;;;;5054937;28;20055;-66
2022/05/17 09:25:46;;;;;;;10.00;2.25;;;22.50;99.90;;;;;;5073044;28;20051;-66
2022/05/17 09:28:18;;;;;;;7.68;2.40;;;22.60;99.90;;;;;;5055246;28;20501;-66
2022/05/17 09:30:44;;;;;;;9.48;2.28;;;22.30;99.50;;;;;;5055224;28;20075;-66
2022/05/17 09:33:14;;;;;;;9.07;2.60;;;22.20;99.70;;;;;;5055181;28;20608;-66
2022/05/17 09:36:00;;;;;;;7.88;1.80;;;22.20;99.90;;;;;;5055090;28;20054;-67
2022/05/17 09:38:35;;;;;;;9.45;2.30;;;22.00;99.80;;;;;;5072939;28;20040;-65
2022/05/17 09:41:01;;;;;;;7.20;1.92;;;21.70;99.90;;;;;;5055105;28;20040;-67
2022/05/17 09:43:39;;;;;;;6.72;2.00;;;21.40;99.90;;;;;;5038126;28;20040;-67
2022/05/17 09:46:13;;;;;;;8.95;2.05;;;21.30;99.90;;;;;;5054603;28;20040;-66
2022/05/17 09:54:34;;;;;;;9.23;2.15;;;20.80;99.90;;;;;;5054384;28;20049;-66
2022/05/17 09:57:15;;;;;;;8.82;1.80;;;20.60;99.90;;;;;;5054640;28;20053;-66
2022/05/17 09:59:43;;;;;;;9.43;1.65;;;20.60;99.90;;;;;;5054770;28;20110;-67
2022/05/17 10:02:40;;;;;;;8.77;1.95;;;20.50;99.90;;;;;;5054341;28;20095;-66
2022/05/17 10:05:40;;;;;;;10.50;1.90;;;20.50;99.90;;;;;;5018548;28;20052;-67
2022/05/17 10:08:25;;;;;;;8.10;1.98;;;20.50;99.90;;;;;;5037515;28;20056;-67
2022/05/17 10:11:06;;;;;;;12.30;2.42;;;20.40;99.90;;;;;;5054384;28;20153;-67
2022/05/17 10:14:02;;;;;;;9.95;2.05;;;20.30;99.90;;;;;;5037511;28;20044;-66
2022/05/17 10:16:37;;;;;;;7.20;1.80;;;20.20;99.90;;;;;;5072100;28;20096;-67
2022/05/17 10:19:13;;;;;;;9.32;1.80;;;20.20;99.90;;;;;;5054359;28;20040;-67
2022/05/17 10:21:49;;;;;;;8.25;2.08;;;20.20;99.90;;;;;;5054298;28;20045;-65
2022/05/17 10:24:15;;;;;;;10.02;1.83;;;20.20;99.90;;;;;;5053949;28;20052;-66
2022/05/17 10:26:46;;;;;;;10.40;2.58;;;20.20;99.90;;;;;;5054165;28;20037;-66
2022/05/17 10:29:52;;;;;;;9.68;2.08;;;20.30;99.90;;;;;;5054232;28;20487;-67
2022/05/17 10:32:32;;;;;;;8.77;1.92;;;20.30;99.90;;;;;;4970615;28;20049;-67
2022/05/17 10:35:16;;;;;;;9.73;1.88;;;20.30;99.90;;;;;;4954845;28;20126;-66
2022/05/17 10:37:53;;;;;;;8.73;2.10;;;20.50;99.90;;;;;;4954608;28;20450;-66
2022/05/17 10:40:24;;;;;;;10.05;2.63;;;20.50;99.90;;;;;;4954434;28;20051;-66
2022/05/17 10:42:51;;;;;;;9.95;2.17;;;20.60;99.90;;;;;;4970705;28;20090;-67
2022/05/17 10:45:32;;;;;;;14.30;2.17;;;20.70;99.90;;;;;;4954477;28;20042;-67
2022/05/17 10:48:02;;;;;;;10.13;2.60;;;20.70;99.90;;;;;;4954631;28;20110;-67
2022/05/17 10:50:48;;;;;;;7.18;1.52;;;20.80;99.90;;;;;;4954292;28;20066;-66
2022/05/17 10:53:42;;;;;;;8.32;1.90;;;20.80;99.90;;;;;;4954273;28;20157;-66
2022/05/17 10:56:39;;;;;;;6.65;1.75;;;20.80;99.90;;;;;;4954427;28;20050;-66
2022/05/17 10:59:09;;;;;;;8.18;2.00;;;20.80;99.90;;;;;;4953985;28;20097;-66
2022/05/17 11:01:50;;;;;;;6.53;1.67;;;20.90;99.90;;;;;;4954226;28;20045;-66
2022/05/17 11:04:31;;;;;;;8.98;2.40;;;21.00;99.90;;;;;;5053376;28;20097;-67
2022/05/17 11:07:24;;;;;;;8.07;2.08;;;20.90;99.90;;;;;;5053258;28;20037;-66
2022/05/17 11:10:24;;;;;;;8.00;1.75;;;21.10;99.90;;;;;;5053181;28;20457;-67
2022/05/17 11:12:55;;;;;;;8.43;2.38;;;21.30;99.90;;;;;;5019962;28;20044;-66
2022/05/17 11:15:32;;;;;;;9.60;2.60;;;21.30;99.90;;;;;;5071125;28;20471;-67
2022/05/17 11:18:47;;;;;;;9.95;3.30;;;21.40;99.90;;;;;;5052794;28;20045;-65
2022/05/17 11:21:38;;;;;;;9.32;2.70;;;21.60;99.90;;;;;;4941428;28;20125;-66
2022/05/17 11:24:23;;;;;;;8.20;3.05;;;21.70;99.90;;;;;;4970182;28;20039;-66
2022/05/17 11:26:57;;;;;;;10.68;2.88;;;21.90;99.90;;;;;;4953767;28;20039;-67
2022/05/17 11:29:46;;;;;;;10.23;3.08;;;21.80;99.90;;;;;;4954043;28;20078;-67
2022/05/17 11:32:24;;;;;;;11.88;3.22;;;21.80;99.90;;;;;;4953829;28;20062;-66
2022/05/17 11:34:53;;;;;;;11.23;3.00;;;21.40;99.90;;;;;;4969686;28;20042;-67
2022/05/17 11:37:33;;;;;;;8.65;3.00;;;21.30;99.90;;;;;;4953494;28;20051;-67
2022/05/17 11:40:08;;;;;;;11.73;2.78;;;21.10;99.90;;;;;;4953638;28;20122;-66
2022/05/17 11:42:36;;;;;;;9.43;2.88;;;20.90;99.90;;;;;;4953704;28;20502;-66
2022/05/17 11:45:40;;;;;;;9.15;2.90;;;21.00;99.90;;;;;;4953642;28;20414;-67
2022/05/17 11:48:14;;;;;;;11.55;3.22;;;20.90;99.90;;;;;;4942236;28;20058;-67
2022/05/17 11:50:44;;;;;;;10.18;2.58;;;21.00;99.90;;;;;;4953064;28;20065;-66
2022/05/17 11:53:25;;;;;;;8.52;2.35;;;21.00;99.90;;;;;;4953867;28;20656;-66
2022/05/17 11:56:24;;;;;;;7.95;2.10;;;21.10;99.90;;;;;;4953563;28;20039;-67
2022/05/17 11:58:58;;;;;;;9.65;3.00;;;21.00;99.90;;;;;;5042807;28;20061;-67
2022/05/17 12:01:27;;;;;;;11.65;3.40;;;21.00;99.90;;;;;;5052491;28;20094;-66
2022/05/17 12:04:21;;;;;;;8.55;3.05;;;21.20;99.90;;;;;;5036188;28;20495;-66
2022/05/17 12:06:53;;;;;;;11.15;3.28;;;21.30;99.90;;;;;;5070401;28;20453;-67
2022/05/17 12:09:35;;;;;;;;;;;21.40;99.90;;;;;;5055107;28;20446;-67
2022/05/17 12:12:39;;;;;;;15.18;3.45;;;21.60;99.90;;;;;;5056920;28;20355;-66
2022/05/17 12:15:20;;;;;;;10.75;3.58;;;21.70;99.90;;;;;;4973571;28;20129;-66
2022/05/17 12:17:49;;;;;;;12.82;3.60;;;21.90;99.90;;;;;;4980833;28;20062;-66
2022/05/17 12:20:31;;;;;;;8.18;3.25;;;22.00;99.90;;;;;;4992956;28;20057;-67
2022/05/17 12:23:24;;;;;;;11.00;3.08;;;22.20;99.90;;;;;;4976551;28;20050;-66
2022/05/17 12:25:58;;;;;;;9.13;3.40;;;22.20;99.90;;;;;;4992491;28;20197;-67
2022/05/17 12:28:35;;;;;;;10.30;3.35;;;22.20;99.90;;;;;;4992773;28;20030;-65
2022/05/17 12:31:01;;;;;;;11.10;3.17;;;22.30;99.90;;;;;;4976216;28;20101;-67
2022/05/17 12:33:33;;;;;;;10.52;3.08;;;22.40;99.90;;;;;;4976516;28;20441;-66
2022/05/17 12:36:20;;;;;;;9.75;2.90;;;22.40;99.90;;;;;;4992365;28;20115;-67
2022/05/17 12:44:38;;;;;;;8.20;2.10;;;22.40;99.90;;;;;;4976080;28;20223;-66
2022/05/17 12:47:10;;;;;;;4.78;2.00;;;22.50;99.90;;;;;;5094185;28;20043;-66
2022/05/17 12:49:35;;;;;;;7.30;2.27;;;22.60;99.90;;;;;;5075888;28;20123;-66
2022/05/17 12:52:24;;;;;;;7.22;2.30;;;22.60;99.90;;;;;;5075695;28;20126;-66
2022/05/17 12:54:50;;;;;;;7.30;1.88;;;22.60;99.90;;;;;;5075859;28;20044;-66
2022/05/17 12:57:18;;;;;;;4.90;2.03;;;22.70;99.90;;;;;;5094196;28;20111;-67
2022/05/17 12:59:43;;;;;;;6.32;2.70;;;22.70;99.90;;;;;;5094075;28;20032;-66
2022/05/17 13:02:09;;;;;;;5.78;2.00;;;22.80;99.90;;;;;;5093756;28;20115;-66
2022/05/17 13:04:37;;;;;;;5.68;2.42;;;22.90;99.90;;;;;;5075662;28;20048;-67
2022/05/17 13:07:12;;;;;;;10.73;2.70;;;22.90;99.90;;;;;;5093871;28;20036;-66
2022/05/17 13:09:51;;;;;;;6.65;2.72;;;23.00;99.90;;;;;;5075776;28;20494;-66
2022/05/17 13:12:17;;;;;;;6.72;2.72;;;23.00;99.90;;;;;;5093907;28;20077;-66
2022/05/17 13:14:43;;;;;;;6.00;1.90;;;23.00;99.90;;;;;;5075483;28;20052;-66
2022/05/17 13:17:12;;;;;;;5.10;2.50;;;23.00;99.90;;;;;;5090400;28;20135;-67